sensor_id;sensor_type;location;lat;lon;timestamp;temperature;humidity
20839;DHT22;10580;51.092;6.828;2022-12-20T00:01:26;11.00;99.90
20839;DHT22;10580;51.092;6.828;2022-12-20T00:03:53;11.00;99.90
20839;DHT22;10580;51.092;6.828;2022-12-20T00:06:19;11.10;99.90
20839;DHT22;10580;51.092;6.828;2022-12-20T00:08:45;11.10;99.90
20839;DHT22;10580;51.092;6.828;2022-12-20T00:11:11;11.20;99.90
20839;DHT22;10580;51.092;6.828;2022-12-20T00:13:37;11.20;99.90
20839;DHT22;10580;51.092;6.828;2022-12-20T00:16:04;11.20;99.90
20839;DHT22;10580;51.092;6.828;2022-12-20T00:18:30;11.40;99.90
20839;DHT22;10580;51.092;6.828;2022-12-20T00:21:00;11.50;99.90
20839;DHT22;10580;51.092;6.828;2022-12-20T00:23:26;11.50;99.90
20839;DHT22;10580;51.092;6.828;2022-12-20T00:26:06;11.60;99.90
20839;DHT22;10580;51.092;6.828;2022-12-20T00:28:33;11.60;99.90
20839;DHT22;10580;51.092;6.828;2022-12-20T00:30:58;11.60;99.90
20839;DHT22;10580;51.092;6.828;2022-12-20T00:33:24;11.60;99.90
20839;DHT22;10580;51.092;6.828;2022-12-20T00:35:50;11.60;99.90
20839;DHT22;10580;51.092;6.828;2022-12-20T00:38:15;11.50;99.90
20839;DHT22;10580;51.092;6.828;2022-12-20T00:40:41;11.50;99.90
20839;DHT22;10580;51.092;6.828;2022-12-20T00:43:07;11.50;99.90
20839;DHT22;10580;51.092;6.828;2022-12-20T00:45:32;11.50;99.90
20839;DHT22;10580;51.092;6.828;2022-12-20T00:47:58;11.50;99.90
20839;DHT22;10580;51.092;6.828;2022-12-20T00:50:23;11.40;99.90
20839;DHT22;10580;51.092;6.828;2022-12-20T00:52:49;11.30;99.90
20839;DHT22;10580;51.092;6.828;2022-12-20T00:55:14;11.30;99.90
20839;DHT22;10580;51.092;6.828;2022-12-20T00:57:40;11.20;99.90
20839;DHT22;10580;51.092;6.828;2022-12-20T01:00:06;11.20;99.90
20839;DHT22;10580;51.092;6.828;2022-12-20T01:02:32;11.20;99.90
20839;DHT22;10580;51.092;6.828;2022-12-20T01:04:57;11.20;99.90
20839;DHT22;10580;51.092;6.828;2022-12-20T01:07:23;11.20;99.90
20839;DHT22;10580;51.092;6.828;2022-12-20T01:09:49;11.20;99.90
20839;DHT22;10580;51.092;6.828;2022-12-20T01:12:15;11.20;99.90
20839;DHT22;10580;51.092;6.828;2022-12-20T01:14:41;11.20;99.90
20839;DHT22;10580;51.092;6.828;2022-12-20T01:17:06;11.20;99.90
20839;DHT22;10580;51.092;6.828;2022-12-20T01:19:32;11.20;99.90
20839;DHT22;10580;51.092;6.828;2022-12-20T01:21:58;11.30;99.90
20839;DHT22;10580;51.092;6.828;2022-12-20T01:24:23;11.40;99.90
20839;DHT22;10580;51.092;6.828;2022-12-20T01:26:49;11.50;99.90
20839;DHT22;10580;51.092;6.828;2022-12-20T01:29:14;11.60;99.90
20839;DHT22;10580;51.092;6.828;2022-12-20T01:31:40;11.70;99.90
20839;DHT22;10580;51.092;6.828;2022-12-20T01:34:06;11.70;99.90
20839;DHT22;10580;51.092;6.828;2022-12-20T01:36:33;11.80;99.90
20839;DHT22;10580;51.092;6.828;2022-12-20T01:39:05;11.70;99.90
20839;DHT22;10580;51.092;6.828;2022-12-20T01:41:32;11.70;99.90
20839;DHT22;10580;51.092;6.828;2022-12-20T01:44:00;11.70;99.90
20839;DHT22;10580;51.092;6.828;2022-12-20T01:46:28;11.70;99.90
20839;DHT22;10580;51.092;6.828;2022-12-20T01:49:05;11.90;99.90
20839;DHT22;10580;51.092;6.828;2022-12-20T01:51:44;11.90;99.90
20839;DHT22;10580;51.092;6.828;2022-12-20T01:54:17;11.90;99.90
20839;DHT22;10580;51.092;6.828;2022-12-20T01:56:47;11.90;99.90
20839;DHT22;10580;51.092;6.828;2022-12-20T01:59:14;11.80;99.90
20839;DHT22;10580;51.092;6.828;2022-12-20T02:01:41;11.80;99.90
20839;DHT22;10580;51.092;6.828;2022-12-20T02:04:08;11.80;99.90
20839;DHT22;10580;51.092;6.828;2022-12-20T02:06:34;11.70;99.90
20839;DHT22;10580;51.092;6.828;2022-12-20T02:09:02;11.80;99.90
20839;DHT22;10580;51.092;6.828;2022-12-20T02:25:27;11.40;99.90
20839;DHT22;10580;51.092;6.828;2022-12-20T02:30:53;11.40;99.90
20839;DHT22;10580;51.092;6.828;2022-12-20T02:33:24;11.50;99.90
20839;DHT22;10580;51.092;6.828;2022-12-20T02:35:53;11.50;99.90
20839;DHT22;10580;51.092;6.828;2022-12-20T02:38:31;11.40;99.90
20839;DHT22;10580;51.092;6.828;2022-12-20T02:43:45;11.40;99.90
20839;DHT22;10580;51.092;6.828;2022-12-20T02:46:31;11.40;99.90
20839;DHT22;10580;51.092;6.828;2022-12-20T02:49:01;11.30;99.90
20839;DHT22;10580;51.092;6.828;2022-12-20T02:51:29;11.20;99.90
20839;DHT22;10580;51.092;6.828;2022-12-20T02:53:57;11.20;99.90
20839;DHT22;10580;51.092;6.828;2022-12-20T02:57:04;11.20;99.90
20839;DHT22;10580;51.092;6.828;2022-12-20T02:59:31;11.20;99.90
20839;DHT22;10580;51.092;6.828;2022-12-20T03:01:58;11.10;99.90
20839;DHT22;10580;51.092;6.828;2022-12-20T03:04:28;11.10;99.90
20839;DHT22;10580;51.092;6.828;2022-12-20T03:06:59;11.00;99.90
20839;DHT22;10580;51.092;6.828;2022-12-20T03:09:25;11.00;99.90
20839;DHT22;10580;51.092;6.828;2022-12-20T03:11:52;11.00;99.90
20839;DHT22;10580;51.092;6.828;2022-12-20T03:14:18;11.00;99.90
20839;DHT22;10580;51.092;6.828;2022-12-20T03:16:44;11.00;99.90
20839;DHT22;10580;51.092;6.828;2022-12-20T03:19:09;10.90;99.90
20839;DHT22;10580;51.092;6.828;2022-12-20T03:21:35;10.90;99.90
20839;DHT22;10580;51.092;6.828;2022-12-20T03:24:00;10.90;99.90
20839;DHT22;10580;51.092;6.828;2022-12-20T03:26:26;10.70;99.90
20839;DHT22;10580;51.092;6.828;2022-12-20T03:28:52;10.60;99.90
20839;DHT22;10580;51.092;6.828;2022-12-20T03:31:17;10.50;99.90
20839;DHT22;10580;51.092;6.828;2022-12-20T03:33:43;10.50;99.90
20839;DHT22;10580;51.092;6.828;2022-12-20T03:36:08;10.40;99.90
20839;DHT22;10580;51.092;6.828;2022-12-20T03:38:34;10.30;99.90
20839;DHT22;10580;51.092;6.828;2022-12-20T03:40:59;10.20;99.90
20839;DHT22;10580;51.092;6.828;2022-12-20T03:43:25;10.10;99.90
20839;DHT22;10580;51.092;6.828;2022-12-20T03:45:50;10.10;99.90
20839;DHT22;10580;51.092;6.828;2022-12-20T03:48:16;10.00;99.90
20839;DHT22;10580;51.092;6.828;2022-12-20T03:50:42;10.00;99.90
20839;DHT22;10580;51.092;6.828;2022-12-20T03:53:08;10.00;99.90
20839;DHT22;10580;51.092;6.828;2022-12-20T03:55:33;10.00;99.90
20839;DHT22;10580;51.092;6.828;2022-12-20T03:57:59;10.00;99.90
20839;DHT22;10580;51.092;6.828;2022-12-20T04:00:24;9.90;99.90
20839;DHT22;10580;51.092;6.828;2022-12-20T04:02:50;10.00;99.90
20839;DHT22;10580;51.092;6.828;2022-12-20T04:05:16;10.00;99.90
20839;DHT22;10580;51.092;6.828;2022-12-20T04:07:42;10.00;99.90
20839;DHT22;10580;51.092;6.828;2022-12-20T04:10:10;10.10;99.90
20839;DHT22;10580;51.092;6.828;2022-12-20T04:12:36;10.10;99.90
20839;DHT22;10580;51.092;6.828;2022-12-20T04:15:02;10.20;99.90
20839;DHT22;10580;51.092;6.828;2022-12-20T04:17:28;10.20;99.90
20839;DHT22;10580;51.092;6.828;2022-12-20T04:19:53;10.30;99.90
20839;DHT22;10580;51.092;6.828;2022-12-20T04:22:19;10.20;99.90
20839;DHT22;10580;51.092;6.828;2022-12-20T04:24:45;10.20;99.90
20839;DHT22;10580;51.092;6.828;2022-12-20T04:27:10;10.20;99.90
20839;DHT22;10580;51.092;6.828;2022-12-20T04:29:36;10.20;99.90
20839;DHT22;10580;51.092;6.828;2022-12-20T04:32:01;10.10;99.90
20839;DHT22;10580;51.092;6.828;2022-12-20T04:34:27;10.10;99.90
20839;DHT22;10580;51.092;6.828;2022-12-20T04:36:52;10.00;99.90
20839;DHT22;10580;51.092;6.828;2022-12-20T04:39:18;10.00;99.90
20839;DHT22;10580;51.092;6.828;2022-12-20T04:41:43;9.90;99.90
20839;DHT22;10580;51.092;6.828;2022-12-20T04:44:09;9.80;99.90
20839;DHT22;10580;51.092;6.828;2022-12-20T04:46:35;9.80;99.90
20839;DHT22;10580;51.092;6.828;2022-12-20T04:49:00;9.70;99.90
20839;DHT22;10580;51.092;6.828;2022-12-20T04:51:27;9.70;99.90
20839;DHT22;10580;51.092;6.828;2022-12-20T04:53:53;9.70;99.90
20839;DHT22;10580;51.092;6.828;2022-12-20T04:56:27;9.70;99.90
20839;DHT22;10580;51.092;6.828;2022-12-20T04:58:54;9.70;99.90
20839;DHT22;10580;51.092;6.828;2022-12-20T05:01:20;9.70;99.90
20839;DHT22;10580;51.092;6.828;2022-12-20T05:03:47;9.60;99.90
20839;DHT22;10580;51.092;6.828;2022-12-20T05:06:13;9.60;99.90
20839;DHT22;10580;51.092;6.828;2022-12-20T05:08:39;9.50;99.90
20839;DHT22;10580;51.092;6.828;2022-12-20T05:11:06;9.50;99.90
20839;DHT22;10580;51.092;6.828;2022-12-20T05:13:31;9.40;99.90
20839;DHT22;10580;51.092;6.828;2022-12-20T05:15:58;9.40;99.90
20839;DHT22;10580;51.092;6.828;2022-12-20T05:18:24;9.40;99.90
20839;DHT22;10580;51.092;6.828;2022-12-20T05:20:54;9.40;99.90
20839;DHT22;10580;51.092;6.828;2022-12-20T05:23:40;9.30;99.90
20839;DHT22;10580;51.092;6.828;2022-12-20T05:26:26;9.30;99.90
20839;DHT22;10580;51.092;6.828;2022-12-20T05:28:53;9.20;99.90
20839;DHT22;10580;51.092;6.828;2022-12-20T05:31:19;9.20;99.90
20839;DHT22;10580;51.092;6.828;2022-12-20T05:33:44;9.20;99.90
20839;DHT22;10580;51.092;6.828;2022-12-20T05:36:10;9.20;99.90
20839;DHT22;10580;51.092;6.828;2022-12-20T05:38:35;9.20;99.90
20839;DHT22;10580;51.092;6.828;2022-12-20T05:41:01;9.20;99.90
20839;DHT22;10580;51.092;6.828;2022-12-20T05:43:29;9.20;99.90
20839;DHT22;10580;51.092;6.828;2022-12-20T05:45:54;9.30;99.90
20839;DHT22;10580;51.092;6.828;2022-12-20T05:48:20;9.20;99.90
20839;DHT22;10580;51.092;6.828;2022-12-20T05:50:46;9.20;99.90
20839;DHT22;10580;51.092;6.828;2022-12-20T05:53:13;9.20;99.90
20839;DHT22;10580;51.092;6.828;2022-12-20T05:55:48;9.10;99.90
20839;DHT22;10580;51.092;6.828;2022-12-20T05:58:14;9.10;99.90
20839;DHT22;10580;51.092;6.828;2022-12-20T06:00:41;9.20;99.90
20839;DHT22;10580;51.092;6.828;2022-12-20T06:03:07;9.30;99.90
20839;DHT22;10580;51.092;6.828;2022-12-20T06:05:35;9.50;99.90
20839;DHT22;10580;51.092;6.828;2022-12-20T06:08:01;9.50;99.90
20839;DHT22;10580;51.092;6.828;2022-12-20T06:10:27;9.60;99.90
20839;DHT22;10580;51.092;6.828;2022-12-20T06:12:52;9.70;99.90
20839;DHT22;10580;51.092;6.828;2022-12-20T06:15:18;9.70;99.90
20839;DHT22;10580;51.092;6.828;2022-12-20T06:17:44;9.70;99.90
20839;DHT22;10580;51.092;6.828;2022-12-20T06:20:10;9.80;99.90
20839;DHT22;10580;51.092;6.828;2022-12-20T06:22:36;9.90;99.90
20839;DHT22;10580;51.092;6.828;2022-12-20T06:25:02;10.00;99.90
20839;DHT22;10580;51.092;6.828;2022-12-20T06:27:27;10.10;99.90
20839;DHT22;10580;51.092;6.828;2022-12-20T06:29:53;10.20;99.90
20839;DHT22;10580;51.092;6.828;2022-12-20T06:32:19;10.30;99.90
20839;DHT22;10580;51.092;6.828;2022-12-20T06:34:45;10.30;99.90
20839;DHT22;10580;51.092;6.828;2022-12-20T06:37:11;10.30;99.90
20839;DHT22;10580;51.092;6.828;2022-12-20T06:39:36;10.30;99.90
20839;DHT22;10580;51.092;6.828;2022-12-20T06:42:02;10.30;99.90
20839;DHT22;10580;51.092;6.828;2022-12-20T06:44:28;10.30;99.90
20839;DHT22;10580;51.092;6.828;2022-12-20T06:46:54;10.30;99.90
20839;DHT22;10580;51.092;6.828;2022-12-20T06:49:19;10.30;99.90
20839;DHT22;10580;51.092;6.828;2022-12-20T06:51:47;10.20;99.90
20839;DHT22;10580;51.092;6.828;2022-12-20T06:54:12;10.20;99.90
20839;DHT22;10580;51.092;6.828;2022-12-20T06:56:38;10.10;99.90
20839;DHT22;10580;51.092;6.828;2022-12-20T06:59:04;9.90;99.90
20839;DHT22;10580;51.092;6.828;2022-12-20T07:01:29;9.90;99.90
20839;DHT22;10580;51.092;6.828;2022-12-20T07:03:55;9.90;99.90
20839;DHT22;10580;51.092;6.828;2022-12-20T07:06:21;9.90;99.90
20839;DHT22;10580;51.092;6.828;2022-12-20T07:08:46;9.80;99.90
20839;DHT22;10580;51.092;6.828;2022-12-20T07:11:12;9.80;99.90
20839;DHT22;10580;51.092;6.828;2022-12-20T07:13:37;9.80;99.90
20839;DHT22;10580;51.092;6.828;2022-12-20T07:16:07;9.80;99.90
20839;DHT22;10580;51.092;6.828;2022-12-20T07:18:32;10.00;99.90
20839;DHT22;10580;51.092;6.828;2022-12-20T07:21:02;10.10;99.90
20839;DHT22;10580;51.092;6.828;2022-12-20T07:23:28;10.10;99.90
20839;DHT22;10580;51.092;6.828;2022-12-20T07:25:58;10.30;99.90
20839;DHT22;10580;51.092;6.828;2022-12-20T07:28:24;10.30;99.90
20839;DHT22;10580;51.092;6.828;2022-12-20T07:30:50;10.30;99.90
20839;DHT22;10580;51.092;6.828;2022-12-20T07:33:16;10.30;99.90
20839;DHT22;10580;51.092;6.828;2022-12-20T07:35:42;10.20;99.90
20839;DHT22;10580;51.092;6.828;2022-12-20T07:38:10;10.20;99.90
20839;DHT22;10580;51.092;6.828;2022-12-20T07:40:38;10.10;99.90
20839;DHT22;10580;51.092;6.828;2022-12-20T07:43:04;10.00;99.90
20839;DHT22;10580;51.092;6.828;2022-12-20T07:45:29;9.90;99.90
20839;DHT22;10580;51.092;6.828;2022-12-20T07:47:55;9.80;99.90
20839;DHT22;10580;51.092;6.828;2022-12-20T07:50:22;9.80;99.90
20839;DHT22;10580;51.092;6.828;2022-12-20T07:52:48;9.80;99.90
20839;DHT22;10580;51.092;6.828;2022-12-20T07:55:14;9.70;99.90
20839;DHT22;10580;51.092;6.828;2022-12-20T07:57:48;9.70;99.90
20839;DHT22;10580;51.092;6.828;2022-12-20T08:00:16;9.70;99.90
20839;DHT22;10580;51.092;6.828;2022-12-20T08:02:57;9.70;99.90
20839;DHT22;10580;51.092;6.828;2022-12-20T08:05:26;9.70;99.90
20839;DHT22;10580;51.092;6.828;2022-12-20T08:07:52;9.70;99.90
20839;DHT22;10580;51.092;6.828;2022-12-20T08:10:20;9.70;99.90
20839;DHT22;10580;51.092;6.828;2022-12-20T08:12:46;9.70;99.90
20839;DHT22;10580;51.092;6.828;2022-12-20T08:15:13;9.60;99.90
20839;DHT22;10580;51.092;6.828;2022-12-20T08:17:38;9.60;99.90
20839;DHT22;10580;51.092;6.828;2022-12-20T08:20:05;9.60;99.90
20839;DHT22;10580;51.092;6.828;2022-12-20T08:22:31;9.60;99.90
20839;DHT22;10580;51.092;6.828;2022-12-20T08:24:57;9.50;99.90
20839;DHT22;10580;51.092;6.828;2022-12-20T08:27:23;9.50;99.90
20839;DHT22;10580;51.092;6.828;2022-12-20T08:29:48;9.50;99.90
20839;DHT22;10580;51.092;6.828;2022-12-20T08:32:14;9.40;99.90
20839;DHT22;10580;51.092;6.828;2022-12-20T08:34:40;9.40;99.90
20839;DHT22;10580;51.092;6.828;2022-12-20T08:37:06;9.40;99.90
20839;DHT22;10580;51.092;6.828;2022-12-20T08:39:31;9.40;99.90
20839;DHT22;10580;51.092;6.828;2022-12-20T08:41:57;9.40;99.90
20839;DHT22;10580;51.092;6.828;2022-12-20T08:44:23;9.40;99.90
20839;DHT22;10580;51.092;6.828;2022-12-20T08:46:48;9.40;99.90
20839;DHT22;10580;51.092;6.828;2022-12-20T08:49:14;9.50;99.90
20839;DHT22;10580;51.092;6.828;2022-12-20T08:51:39;9.60;99.90
20839;DHT22;10580;51.092;6.828;2022-12-20T08:54:05;9.60;99.90
20839;DHT22;10580;51.092;6.828;2022-12-20T08:56:30;9.80;99.90
20839;DHT22;10580;51.092;6.828;2022-12-20T08:58:56;10.00;99.90
20839;DHT22;10580;51.092;6.828;2022-12-20T09:01:22;10.10;99.90
20839;DHT22;10580;51.092;6.828;2022-12-20T09:03:47;10.30;99.90
20839;DHT22;10580;51.092;6.828;2022-12-20T09:06:16;10.30;99.90
20839;DHT22;10580;51.092;6.828;2022-12-20T09:08:42;10.40;99.90
20839;DHT22;10580;51.092;6.828;2022-12-20T09:11:12;10.50;99.90
20839;DHT22;10580;51.092;6.828;2022-12-20T09:13:39;10.60;99.90
20839;DHT22;10580;51.092;6.828;2022-12-20T09:16:07;10.60;99.90
20839;DHT22;10580;51.092;6.828;2022-12-20T09:18:34;10.70;99.90
20839;DHT22;10580;51.092;6.828;2022-12-20T09:21:01;10.60;99.90
20839;DHT22;10580;51.092;6.828;2022-12-20T09:23:27;10.70;99.90
20839;DHT22;10580;51.092;6.828;2022-12-20T09:26:01;10.70;99.90
20839;DHT22;10580;51.092;6.828;2022-12-20T09:28:42;10.70;99.90
20839;DHT22;10580;51.092;6.828;2022-12-20T09:31:11;10.70;99.90
20839;DHT22;10580;51.092;6.828;2022-12-20T09:33:41;10.60;99.90
20839;DHT22;10580;51.092;6.828;2022-12-20T09:36:16;10.60;99.90
20839;DHT22;10580;51.092;6.828;2022-12-20T09:39:02;10.50;99.90
20839;DHT22;10580;51.092;6.828;2022-12-20T09:41:30;10.50;99.90
20839;DHT22;10580;51.092;6.828;2022-12-20T09:43:58;10.50;99.90
20839;DHT22;10580;51.092;6.828;2022-12-20T09:46:25;10.50;99.90
20839;DHT22;10580;51.092;6.828;2022-12-20T09:48:52;10.40;99.90
20839;DHT22;10580;51.092;6.828;2022-12-20T09:51:42;10.30;99.90
20839;DHT22;10580;51.092;6.828;2022-12-20T09:54:39;10.30;99.90
20839;DHT22;10580;51.092;6.828;2022-12-20T09:59:46;10.30;99.90
20839;DHT22;10580;51.092;6.828;2022-12-20T10:02:24;10.30;99.90
20839;DHT22;10580;51.092;6.828;2022-12-20T10:05:03;10.30;99.90
20839;DHT22;10580;51.092;6.828;2022-12-20T10:07:54;10.40;99.90
20839;DHT22;10580;51.092;6.828;2022-12-20T10:19:48;10.80;99.90
20839;DHT22;10580;51.092;6.828;2022-12-20T10:25:18;11.00;99.90
20839;DHT22;10580;51.092;6.828;2022-12-20T10:27:49;11.00;99.90
20839;DHT22;10580;51.092;6.828;2022-12-20T10:30:18;11.00;99.90
20839;DHT22;10580;51.092;6.828;2022-12-20T10:32:50;11.00;99.90
20839;DHT22;10580;51.092;6.828;2022-12-20T10:35:30;11.00;99.90
20839;DHT22;10580;51.092;6.828;2022-12-20T10:38:08;10.90;99.90
20839;DHT22;10580;51.092;6.828;2022-12-20T10:41:00;10.90;99.90
20839;DHT22;10580;51.092;6.828;2022-12-20T10:47:00;10.90;99.90
20839;DHT22;10580;51.092;6.828;2022-12-20T10:49:37;11.00;99.90
20839;DHT22;10580;51.092;6.828;2022-12-20T10:52:12;11.10;99.90
20839;DHT22;10580;51.092;6.828;2022-12-20T10:54:45;11.20;99.90
20839;DHT22;10580;51.092;6.828;2022-12-20T10:57:19;11.20;99.90
20839;DHT22;10580;51.092;6.828;2022-12-20T11:00:25;11.30;99.90
20839;DHT22;10580;51.092;6.828;2022-12-20T11:03:15;11.40;99.90
20839;DHT22;10580;51.092;6.828;2022-12-20T11:06:02;11.50;99.90
20839;DHT22;10580;51.092;6.828;2022-12-20T11:08:30;11.50;99.90
20839;DHT22;10580;51.092;6.828;2022-12-20T11:11:20;11.60;99.90
20839;DHT22;10580;51.092;6.828;2022-12-20T11:13:52;11.60;99.90
20839;DHT22;10580;51.092;6.828;2022-12-20T11:16:35;11.60;99.90
20839;DHT22;10580;51.092;6.828;2022-12-20T11:19:20;11.60;99.90
20839;DHT22;10580;51.092;6.828;2022-12-20T11:24:57;11.70;99.90
20839;DHT22;10580;51.092;6.828;2022-12-20T11:34:17;11.70;99.90
20839;DHT22;10580;51.092;6.828;2022-12-20T11:37:16;11.70;99.90
20839;DHT22;10580;51.092;6.828;2022-12-20T11:42:47;11.70;99.90
20839;DHT22;10580;51.092;6.828;2022-12-20T11:52:03;11.80;99.90
20839;DHT22;10580;51.092;6.828;2022-12-20T11:58:24;11.90;99.90
20839;DHT22;10580;51.092;6.828;2022-12-20T12:04:24;12.00;99.90
20839;DHT22;10580;51.092;6.828;2022-12-20T12:10:25;12.20;99.90
20839;DHT22;10580;51.092;6.828;2022-12-20T12:16:23;12.30;99.90
20839;DHT22;10580;51.092;6.828;2022-12-20T12:18:58;12.30;99.90
20839;DHT22;10580;51.092;6.828;2022-12-20T12:21:36;12.30;99.90
20839;DHT22;10580;51.092;6.828;2022-12-20T12:27:49;12.30;99.90
20839;DHT22;10580;51.092;6.828;2022-12-20T12:30:18;12.30;99.90
20839;DHT22;10580;51.092;6.828;2022-12-20T12:32:55;12.40;99.90
20839;DHT22;10580;51.092;6.828;2022-12-20T12:45:21;12.30;99.90
20839;DHT22;10580;51.092;6.828;2022-12-20T12:47:57;12.20;99.90
20839;DHT22;10580;51.092;6.828;2022-12-20T12:50:46;12.10;99.90
20839;DHT22;10580;51.092;6.828;2022-12-20T12:56:49;11.90;99.90
20839;DHT22;10580;51.092;6.828;2022-12-20T13:12:45;11.70;99.90
20839;DHT22;10580;51.092;6.828;2022-12-20T13:19:55;11.80;99.90
20839;DHT22;10580;51.092;6.828;2022-12-20T13:22:33;11.80;99.90
20839;DHT22;10580;51.092;6.828;2022-12-20T13:25:33;11.70;99.90
20839;DHT22;10580;51.092;6.828;2022-12-20T13:37:00;11.70;99.90
20839;DHT22;10580;51.092;6.828;2022-12-20T13:49:31;11.70;99.90
20839;DHT22;10580;51.092;6.828;2022-12-20T15:54:09;11.00;99.90
20839;DHT22;10580;51.092;6.828;2022-12-20T16:06:33;10.70;99.90
20839;DHT22;10580;51.092;6.828;2022-12-20T16:09:30;10.50;99.90
20839;DHT22;10580;51.092;6.828;2022-12-20T16:12:32;10.50;99.90
20839;DHT22;10580;51.092;6.828;2022-12-20T16:15:34;10.60;99.90
20839;DHT22;10580;51.092;6.828;2022-12-20T16:18:13;10.60;99.90
20839;DHT22;10580;51.092;6.828;2022-12-20T16:20:41;10.70;99.90
20839;DHT22;10580;51.092;6.828;2022-12-20T16:23:18;10.80;99.90
20839;DHT22;10580;51.092;6.828;2022-12-20T16:25:47;10.80;99.90
20839;DHT22;10580;51.092;6.828;2022-12-20T16:28:21;10.90;99.90
20839;DHT22;10580;51.092;6.828;2022-12-20T16:30:47;11.00;99.90
20839;DHT22;10580;51.092;6.828;2022-12-20T16:33:19;11.00;99.90
20839;DHT22;10580;51.092;6.828;2022-12-20T16:35:45;11.00;99.90
20839;DHT22;10580;51.092;6.828;2022-12-20T16:38:11;11.00;99.90
20839;DHT22;10580;51.092;6.828;2022-12-20T16:40:36;11.10;99.90
20839;DHT22;10580;51.092;6.828;2022-12-20T16:43:17;11.10;99.90
20839;DHT22;10580;51.092;6.828;2022-12-20T16:46:03;11.10;99.90
20839;DHT22;10580;51.092;6.828;2022-12-20T16:48:30;11.10;99.90
20839;DHT22;10580;51.092;6.828;2022-12-20T16:50:56;11.10;99.90
20839;DHT22;10580;51.092;6.828;2022-12-20T16:53:22;11.10;99.90
20839;DHT22;10580;51.092;6.828;2022-12-20T16:55:47;11.10;99.90
20839;DHT22;10580;51.092;6.828;2022-12-20T16:58:44;11.20;99.90
20839;DHT22;10580;51.092;6.828;2022-12-20T17:01:18;11.20;99.90
20839;DHT22;10580;51.092;6.828;2022-12-20T17:03:53;11.30;99.90
20839;DHT22;10580;51.092;6.828;2022-12-20T17:06:19;11.30;99.90
20839;DHT22;10580;51.092;6.828;2022-12-20T17:08:46;11.20;99.90
20839;DHT22;10580;51.092;6.828;2022-12-20T17:11:20;11.20;99.90
20839;DHT22;10580;51.092;6.828;2022-12-20T17:13:48;11.20;99.90
20839;DHT22;10580;51.092;6.828;2022-12-20T17:16:14;11.20;99.90
20839;DHT22;10580;51.092;6.828;2022-12-20T17:18:45;11.20;99.90
20839;DHT22;10580;51.092;6.828;2022-12-20T17:23:58;11.10;99.90
20839;DHT22;10580;51.092;6.828;2022-12-20T17:26:34;11.10;99.90
20839;DHT22;10580;51.092;6.828;2022-12-20T17:29:04;11.10;99.90
20839;DHT22;10580;51.092;6.828;2022-12-20T17:31:36;11.10;99.90
20839;DHT22;10580;51.092;6.828;2022-12-20T17:34:27;11.10;99.90
20839;DHT22;10580;51.092;6.828;2022-12-20T17:36:54;11.00;99.90
20839;DHT22;10580;51.092;6.828;2022-12-20T17:39:44;11.10;99.90
20839;DHT22;10580;51.092;6.828;2022-12-20T17:42:28;11.10;99.90
20839;DHT22;10580;51.092;6.828;2022-12-20T17:45:27;11.10;99.90
20839;DHT22;10580;51.092;6.828;2022-12-20T17:48:09;11.00;99.90
20839;DHT22;10580;51.092;6.828;2022-12-20T17:50:48;11.10;99.90
20839;DHT22;10580;51.092;6.828;2022-12-20T17:53:26;11.10;99.90
20839;DHT22;10580;51.092;6.828;2022-12-20T17:59:08;11.10;99.90
20839;DHT22;10580;51.092;6.828;2022-12-20T18:01:46;11.10;99.90
20839;DHT22;10580;51.092;6.828;2022-12-20T18:04:47;11.00;99.90
20839;DHT22;10580;51.092;6.828;2022-12-20T18:07:33;11.10;99.90
20839;DHT22;10580;51.092;6.828;2022-12-20T18:10:08;11.10;99.90
20839;DHT22;10580;51.092;6.828;2022-12-20T18:12:48;11.10;99.90
20839;DHT22;10580;51.092;6.828;2022-12-20T18:19:09;11.20;99.90
20839;DHT22;10580;51.092;6.828;2022-12-20T18:25:50;11.20;99.90
20839;DHT22;10580;51.092;6.828;2022-12-20T18:28:16;11.20;99.90
20839;DHT22;10580;51.092;6.828;2022-12-20T18:30:41;11.20;99.90
20839;DHT22;10580;51.092;6.828;2022-12-20T18:33:13;11.20;99.90
20839;DHT22;10580;51.092;6.828;2022-12-20T18:35:42;11.30;99.90
20839;DHT22;10580;51.092;6.828;2022-12-20T18:38:07;11.40;99.90
20839;DHT22;10580;51.092;6.828;2022-12-20T18:40:34;11.50;99.90
20839;DHT22;10580;51.092;6.828;2022-12-20T18:42:59;11.50;99.90
20839;DHT22;10580;51.092;6.828;2022-12-20T18:45:27;11.40;99.90
20839;DHT22;10580;51.092;6.828;2022-12-20T18:47:58;11.40;99.90
20839;DHT22;10580;51.092;6.828;2022-12-20T18:50:24;11.40;99.90
20839;DHT22;10580;51.092;6.828;2022-12-20T18:52:52;11.40;99.90
20839;DHT22;10580;51.092;6.828;2022-12-20T18:55:18;11.40;99.90
20839;DHT22;10580;51.092;6.828;2022-12-20T18:57:44;11.40;99.90
20839;DHT22;10580;51.092;6.828;2022-12-20T19:00:10;11.40;99.90
20839;DHT22;10580;51.092;6.828;2022-12-20T19:02:35;11.40;99.90
20839;DHT22;10580;51.092;6.828;2022-12-20T19:05:01;11.30;99.90
20839;DHT22;10580;51.092;6.828;2022-12-20T19:07:26;11.30;99.90
20839;DHT22;10580;51.092;6.828;2022-12-20T19:09:52;11.20;99.90
20839;DHT22;10580;51.092;6.828;2022-12-20T19:12:18;11.20;99.90
20839;DHT22;10580;51.092;6.828;2022-12-20T19:14:43;11.20;99.90
20839;DHT22;10580;51.092;6.828;2022-12-20T19:17:09;11.20;99.90
20839;DHT22;10580;51.092;6.828;2022-12-20T19:19:34;11.30;99.90
20839;DHT22;10580;51.092;6.828;2022-12-20T19:22:00;11.20;99.90
20839;DHT22;10580;51.092;6.828;2022-12-20T19:24:26;11.30;99.90
20839;DHT22;10580;51.092;6.828;2022-12-20T19:26:52;11.30;99.90
20839;DHT22;10580;51.092;6.828;2022-12-20T19:29:17;11.30;99.90
20839;DHT22;10580;51.092;6.828;2022-12-20T19:31:43;11.30;99.90
20839;DHT22;10580;51.092;6.828;2022-12-20T19:34:11;11.30;99.90
20839;DHT22;10580;51.092;6.828;2022-12-20T19:36:39;11.30;99.90
20839;DHT22;10580;51.092;6.828;2022-12-20T19:39:07;11.30;99.90
20839;DHT22;10580;51.092;6.828;2022-12-20T19:41:39;11.30;99.90
20839;DHT22;10580;51.092;6.828;2022-12-20T19:44:05;11.20;99.90
20839;DHT22;10580;51.092;6.828;2022-12-20T19:46:31;11.10;99.90
20839;DHT22;10580;51.092;6.828;2022-12-20T19:48:58;11.10;99.90
20839;DHT22;10580;51.092;6.828;2022-12-20T19:51:24;11.00;99.90
20839;DHT22;10580;51.092;6.828;2022-12-20T19:53:50;11.00;99.90
20839;DHT22;10580;51.092;6.828;2022-12-20T19:56:20;10.90;99.90
20839;DHT22;10580;51.092;6.828;2022-12-20T19:58:47;10.90;99.90
20839;DHT22;10580;51.092;6.828;2022-12-20T20:01:14;10.80;99.90
20839;DHT22;10580;51.092;6.828;2022-12-20T20:03:40;10.80;99.90
20839;DHT22;10580;51.092;6.828;2022-12-20T20:06:07;10.70;99.90
20839;DHT22;10580;51.092;6.828;2022-12-20T20:08:33;10.70;99.90
20839;DHT22;10580;51.092;6.828;2022-12-20T20:11:00;10.70;99.90
20839;DHT22;10580;51.092;6.828;2022-12-20T20:13:27;10.70;99.90
20839;DHT22;10580;51.092;6.828;2022-12-20T20:15:55;10.70;99.90
20839;DHT22;10580;51.092;6.828;2022-12-20T20:18:22;10.70;99.90
20839;DHT22;10580;51.092;6.828;2022-12-20T20:20:47;10.70;99.90
20839;DHT22;10580;51.092;6.828;2022-12-20T20:23:14;10.70;99.90